createdAt,value
2022-08-26T00:02:30.747Z,44.99
2022-08-26T00:07:32.424Z,45.39
2022-08-26T00:12:35.968Z,45.57
2022-08-26T00:17:40.343Z,45.37
2022-08-26T00:22:43.363Z,45.68
2022-08-26T00:27:45.982Z,45.52
2022-08-26T00:32:48.814Z,46.00
2022-08-26T00:37:51.330Z,45.70
2022-08-26T00:42:53.450Z,45.97
2022-08-26T00:48:03.810Z,46.09
2022-08-26T00:53:24.130Z,46.30
2022-08-26T00:58:31.597Z,46.35
2022-08-26T01:03:34.776Z,46.47
2022-08-26T01:08:36.801Z,46.55
2022-08-26T01:13:40.399Z,47.06
2022-08-26T01:18:44.089Z,47.17
2022-08-26T01:23:49.668Z,46.78
2022-08-26T01:28:55.275Z,47.00
2022-08-26T01:34:17.787Z,47.06
2022-08-26T01:39:21.359Z,47.38
2022-08-26T01:44:27.851Z,47.34
2022-08-26T01:49:29.882Z,47.32
2022-08-26T01:54:34.141Z,47.60
2022-08-26T01:59:35.774Z,47.99
2022-08-26T02:04:43.689Z,48.14
2022-08-26T02:09:45.354Z,48.08
2022-08-26T02:14:53.831Z,48.51
2022-08-26T02:19:56.286Z,48.33
2022-08-26T02:25:07.099Z,48.43
2022-08-26T02:30:21.611Z,48.53
2022-08-26T02:35:23.975Z,48.68
2022-08-26T02:40:31.115Z,48.52
2022-08-26T02:45:33.397Z,48.76
2022-08-26T02:50:35.426Z,48.82
2022-08-26T02:55:37.046Z,48.57
2022-08-26T03:00:52.491Z,48.57
2022-08-26T03:05:55.136Z,48.50
2022-08-26T03:10:56.922Z,48.49
2022-08-26T03:16:01.592Z,48.69
2022-08-26T03:21:15.517Z,48.63
2022-08-26T03:26:17.255Z,48.74
2022-08-26T03:31:18.918Z,49.02
2022-08-26T03:36:27.187Z,49.03
2022-08-26T03:41:29.115Z,49.03
2022-08-26T03:46:35.804Z,49.24
2022-08-26T03:51:39.641Z,49.42
2022-08-26T03:56:43.801Z,49.43
2022-08-26T04:01:48.404Z,49.08
2022-08-26T04:06:50.567Z,49.07
2022-08-26T04:11:52.219Z,49.31
2022-08-26T04:16:56.527Z,49.38
2022-08-26T04:21:59.312Z,49.67
2022-08-26T04:27:03.519Z,49.66
2022-08-26T04:32:06.661Z,49.77
2022-08-26T04:37:09.225Z,49.91
2022-08-26T04:42:10.894Z,49.37
2022-08-26T04:47:12.660Z,49.38
2022-08-26T04:52:14.248Z,49.33
2022-08-26T04:57:18.003Z,49.07
2022-08-26T05:02:19.744Z,49.44
2022-08-26T05:07:21.400Z,49.46
2022-08-26T05:12:23.401Z,49.20
2022-08-26T05:17:27.249Z,49.32
2022-08-26T05:22:28.978Z,49.04
2022-08-26T05:27:30.738Z,49.63
2022-08-26T05:32:34.489Z,49.57
2022-08-26T05:37:38.473Z,49.55
2022-08-26T05:42:40.527Z,49.56
2022-08-26T05:47:42.847Z,49.69
2022-08-26T05:52:44.655Z,49.94
2022-08-26T05:57:46.271Z,50.19
2022-08-26T06:02:49.816Z,50.35
2022-08-26T06:08:11.306Z,50.18
2022-08-26T06:13:14.104Z,50.74
2022-08-26T06:18:19.588Z,50.62
2022-08-26T06:23:40.449Z,50.67
2022-08-26T06:28:45.498Z,50.93
2022-08-26T06:33:47.377Z,51.13
2022-08-26T06:38:50.691Z,51.24
2022-08-26T06:43:52.857Z,51.38
2022-08-26T06:48:55.582Z,51.30
2022-08-26T06:54:00.144Z,51.33
2022-08-26T06:59:02.265Z,51.34
2022-08-26T07:04:10.350Z,51.50
2022-08-26T07:09:12.336Z,51.44
2022-08-26T07:14:16.306Z,51.35
2022-08-26T07:19:30.526Z,51.44
2022-08-26T07:24:36.229Z,51.44
2022-08-26T07:29:39.599Z,51.29
2022-08-26T07:34:42.209Z,51.21
2022-08-26T07:39:44.454Z,51.00
2022-08-26T07:44:46.217Z,50.58
2022-08-26T07:49:47.881Z,50.46
2022-08-26T07:54:59.356Z,50.58
2022-08-26T08:00:01.395Z,50.28
2022-08-26T08:05:03.629Z,50.16
2022-08-26T08:10:11.327Z,50.14
2022-08-26T08:15:13.893Z,50.36
2022-08-26T08:20:15.579Z,50.22
2022-08-26T08:25:17.673Z,49.73
2022-08-26T08:30:23.026Z,49.82
2022-08-26T08:35:26.471Z,49.78
2022-08-26T08:40:28.298Z,49.48
2022-08-26T08:45:38.219Z,49.24
2022-08-26T08:50:44.829Z,48.54
2022-08-26T08:56:02.232Z,47.80
2022-08-26T09:01:09.720Z,47.77
2022-08-26T09:06:17.429Z,47.18
2022-08-26T09:11:20.911Z,46.94
2022-08-26T09:16:56.649Z,46.74
2022-08-26T09:22:01.584Z,46.75
2022-08-26T09:27:04.020Z,46.96
2022-08-26T09:32:21.915Z,46.75
2022-08-26T09:37:53.034Z,46.87
2022-08-26T09:43:22.249Z,45.96
2022-08-26T09:48:36.644Z,44.82
2022-08-26T09:53:52.777Z,44.66
2022-08-26T09:58:57.060Z,44.98
2022-08-26T10:04:14.034Z,45.19
2022-08-26T10:09:18.344Z,45.10
2022-08-26T10:14:24.996Z,44.72
2022-08-26T10:19:56.275Z,44.62
2022-08-26T10:25:03.843Z,44.50
2022-08-26T10:30:11.284Z,44.80
2022-08-26T10:35:14.901Z,44.74
2022-08-26T10:40:25.869Z,44.78
2022-08-26T10:45:33.138Z,44.77
2022-08-26T10:50:47.428Z,45.40
2022-08-26T10:56:18.802Z,46.01
2022-08-26T11:01:43.218Z,46.18
2022-08-26T11:06:46.143Z,45.99
2022-08-26T11:11:49.699Z,46.70
2022-08-26T11:16:54.111Z,46.67
2022-08-26T11:22:06.115Z,46.72
2022-08-26T11:27:12.624Z,47.11
2022-08-26T11:32:34.248Z,47.41
2022-08-26T11:37:42.509Z,47.93
2022-08-26T11:42:55.529Z,48.00
2022-08-26T11:47:57.404Z,48.46
2022-08-26T11:53:06.378Z,49.06
2022-08-26T11:58:13.090Z,49.69
2022-08-26T12:03:19.473Z,49.52
2022-08-26T12:08:28.129Z,50.16
2022-08-26T12:13:29.790Z,50.60
2022-08-26T12:18:36.065Z,50.79
2022-08-26T12:23:49.958Z,50.92
2022-08-26T12:28:59.550Z,50.54
2022-08-26T12:34:04.924Z,50.42
2022-08-26T12:39:35.403Z,50.57
2022-08-26T12:44:53.293Z,51.46
2022-08-26T12:50:03.789Z,51.58
2022-08-26T12:55:18.227Z,51.33
2022-08-26T13:00:34.867Z,51.64
2022-08-26T13:05:37.957Z,52.04
2022-08-26T13:10:42.690Z,51.93
2022-08-26T13:15:44.712Z,51.77
2022-08-26T13:20:46.567Z,51.82
2022-08-26T13:25:48.388Z,51.43
2022-08-26T13:30:50.239Z,51.06
2022-08-26T13:35:52.506Z,51.39
2022-08-26T13:40:54.192Z,51.10
2022-08-26T13:45:56.858Z,51.22
2022-08-26T13:50:58.838Z,51.67
2022-08-26T13:56:01.986Z,51.67
2022-08-26T14:01:07.290Z,51.53
2022-08-26T14:06:10.017Z,51.96
2022-08-26T14:11:12.144Z,51.68
2022-08-26T14:16:22.825Z,51.77
2022-08-26T14:21:25.438Z,51.94
2022-08-26T14:26:28.840Z,52.01
2022-08-26T14:31:33.190Z,52.29
2022-08-26T14:36:35.801Z,52.47
2022-08-26T14:41:54.015Z,51.98
2022-08-26T14:46:57.097Z,52.23
2022-08-26T14:51:58.790Z,52.46
2022-08-26T14:57:03.877Z,52.69
2022-08-26T15:02:07.443Z,52.27
2022-08-26T15:07:12.730Z,52.46
2022-08-26T15:12:14.625Z,52.73
2022-08-26T15:17:16.214Z,52.69
2022-08-26T15:22:18.226Z,52.60
2022-08-26T15:27:19.829Z,52.42
2022-08-26T15:32:21.823Z,52.28
2022-08-26T15:37:23.883Z,52.35
2022-08-26T15:42:25.527Z,52.52
2022-08-26T15:47:27.154Z,52.72
2022-08-26T15:52:30.147Z,52.49
2022-08-26T15:57:32.233Z,52.16
2022-08-26T16:02:35.113Z,51.89
2022-08-26T16:07:37.125Z,51.92
2022-08-26T16:12:38.754Z,52.26
2022-08-26T16:17:40.784Z,52.39
2022-08-26T16:22:42.945Z,52.43
2022-08-26T16:27:44.541Z,52.12
2022-08-26T16:32:47.253Z,52.35
2022-08-26T16:37:49.052Z,52.18
2022-08-26T16:42:54.936Z,52.25
2022-08-26T16:47:56.726Z,52.01
2022-08-26T16:52:58.554Z,52.42
2022-08-26T16:58:00.198Z,52.43
2022-08-26T17:03:01.992Z,52.84
2022-08-26T17:08:04.914Z,52.97
2022-08-26T17:13:06.679Z,52.62
2022-08-26T17:18:09.078Z,52.54
2022-08-26T17:23:10.833Z,53.28
2022-08-26T17:28:13.503Z,53.17
2022-08-26T17:33:15.380Z,53.51
2022-08-26T17:38:22.317Z,53.48
2022-08-26T17:43:26.856Z,53.52
2022-08-26T17:48:28.876Z,53.48
2022-08-26T17:53:30.437Z,53.43
2022-08-26T17:58:32.201Z,53.11
2022-08-26T18:03:36.458Z,53.38
2022-08-26T18:08:39.469Z,53.40
2022-08-26T18:13:45.845Z,53.69
2022-08-26T18:18:53.630Z,53.80
2022-08-26T18:23:56.363Z,53.59
2022-08-26T18:28:58.448Z,53.78
2022-08-26T18:34:01.627Z,54.30
2022-08-26T18:39:05.969Z,54.05
2022-08-26T18:44:13.286Z,54.12
2022-08-26T18:49:17.572Z,54.05
2022-08-26T18:59:27.000Z,53.12
2022-08-26T19:04:32.291Z,53.01
2022-08-26T19:09:34.516Z,53.19
2022-08-26T19:14:37.726Z,53.26
2022-08-26T19:19:39.355Z,53.05
2022-08-26T19:24:41.171Z,53.26
2022-08-26T19:29:42.793Z,52.99
2022-08-26T19:34:44.544Z,52.82
2022-08-26T19:39:47.420Z,52.86
2022-08-26T19:45:07.608Z,53.05
2022-08-26T19:50:17.844Z,52.88
2022-08-26T19:55:21.014Z,53.21
2022-08-26T20:00:25.280Z,53.09
2022-08-26T20:05:27.254Z,53.22
2022-08-26T20:10:29.077Z,53.31
2022-08-26T20:15:30.691Z,53.01
2022-08-26T20:20:50.873Z,53.09
2022-08-26T20:25:52.624Z,52.96
2022-08-26T20:30:54.237Z,53.13
2022-08-26T20:40:57.560Z,53.03
2022-08-26T20:46:00.259Z,52.72
2022-08-26T20:51:02.141Z,52.41
2022-08-26T20:56:07.275Z,52.73
2022-08-26T21:01:20.858Z,52.31
2022-08-26T21:06:23.700Z,52.51
2022-08-26T21:11:26.345Z,52.58
2022-08-26T21:16:28.443Z,52.68
2022-08-26T21:21:30.255Z,52.80
2022-08-26T21:26:32.727Z,52.69
2022-08-26T21:31:35.037Z,52.80
2022-08-26T21:36:36.753Z,52.75
2022-08-26T21:41:39.158Z,52.69
2022-08-26T21:46:42.018Z,53.03
2022-08-26T21:51:46.582Z,52.83
2022-08-26T21:56:48.277Z,52.81
2022-08-26T22:01:50.033Z,52.92
2022-08-26T22:06:54.755Z,53.05
2022-08-26T22:11:56.947Z,53.32
2022-08-26T22:16:59.018Z,53.55
2022-08-26T22:22:00.975Z,52.97
2022-08-26T22:27:02.831Z,53.21
2022-08-26T22:32:04.738Z,53.27
2022-08-26T22:37:06.537Z,53.14
2022-08-26T22:42:08.177Z,52.92
2022-08-26T22:47:09.905Z,53.02
2022-08-26T22:52:11.625Z,52.83
2022-08-26T22:57:13.262Z,53.18
2022-08-26T23:02:15.364Z,52.94
2022-08-26T23:07:16.954Z,53.00
2022-08-26T23:12:18.547Z,53.04
2022-08-26T23:17:21.415Z,53.14
2022-08-26T23:22:23.008Z,53.21
2022-08-26T23:27:24.619Z,53.04
2022-08-26T23:32:26.348Z,53.13
2022-08-26T23:37:31.965Z,53.19
2022-08-26T23:42:36.165Z,53.32
2022-08-26T23:47:37.821Z,53.54
2022-08-26T23:52:57.906Z,53.44
2022-08-26T23:57:59.782Z,53.72
